Latest Weather Observations for Rowley Shoals

IDW60801

Issued at 7:35 am WST Thursday 24 April 2014 (issued every 30 minutes, with the page automatically refreshed every 10 minutes)

About weather observations | Map of weather stations | Latest weather observations for WA | Other Formats
Station Details ID: 200713 Name: ROWLEY SHOALS Lat: -17.52 Lon: 118.95 Height: 0.0 m
Data from the previous 72 hours. | See also: Recent months for locations in Western Australia
Date/Time
WST
Temp
°C
App
Temp
°C
Dew
Point
Rel
Hum
%
Delta-T
°C
Wind Press
QNH
hPa
Press
MSL
hPa
Rain
since 9 am
mm
Dir
 
Spd
km/h
Gust
km/h
Spd
kts
Gust
kts
24/07:30am - - - - - SSW 15 17 8 9 1010.3 - -
24/07:00am - - - - - SSW 13 13 7 7 1010.0 1010.0 -
24/06:30am - - - - - SSW 11 15 6 8 1009.6 - -
24/06:00am - - - - - SSW 9 11 5 6 1009.4 1009.3 -
24/05:30am - - - - - SSW 11 13 6 7 1009.2 - -
24/05:00am - - - - - SSW 11 13 6 7 1009.1 1009.0 -
24/04:30am - - - - - SW 9 9 5 5 1009.0 - -
24/04:00am - - - - - SW 7 9 4 5 1009.0 1008.8 -
24/03:30am - - - - - SSW 9 11 5 6 1009.0 - -
24/03:00am - - - - - SSW 9 11 5 6 1009.0 1008.9 -
24/02:30am - - - - - SW 9 11 5 6 1009.1 - -
24/02:00am - - - - - WSW 7 9 4 5 1009.1 1009.0 -
24/01:30am - - - - - SW 9 11 5 6 1009.3 - -
24/01:00am - - - - - SW 9 11 5 6 1009.5 1009.3 -
24/12:30am - - - - - WSW 7 11 4 6 1009.7 - -
24/12:00am - - - - - SSW 9 11 5 6 1010.0 1009.8 -
 
Date/Time
WST
Temp
°C
App
Temp
°C
Dew
Point
Rel
Hum
%
Delta-T
°C
Wind Press
QNH
hPa
Press
MSL
hPa
Rain
since 9 am
mm
Dir
 
Spd
km/h
Gust
km/h
Spd
kts
Gust
kts
23/11:30pm - - - - - SSW 9 11 5 6 1010.3 - -
23/11:00pm - - - - - SSW 11 13 6 7 1010.5 1010.4 -
23/10:30pm - - - - - S 13 17 7 9 1010.7 - -
23/10:00pm - - - - - S 13 15 7 8 1010.9 1010.7 -
23/09:30pm - - - - - S 11 15 6 8 1011.0 - -
23/09:00pm - - - - - S 13 15 7 8 1011.2 1011.1 -
23/08:30pm - - - - - S 13 15 7 8 1011.2 - -
23/08:00pm - - - - - S 13 19 7 10 1011.0 1010.9 -
23/07:30pm - - - - - S 15 17 8 9 1010.7 - -
23/07:00pm - - - - - S 13 20 7 11 1010.5 1010.4 -
23/06:30pm - - - - - S 15 20 8 11 1010.2 - -
23/06:00pm - - - - - S 13 19 7 10 1009.9 1009.9 -
23/05:30pm - - - - - S 13 15 7 8 1009.5 - -
23/05:00pm - - - - - S 13 20 7 11 1009.2 1009.2 -
23/04:30pm - - - - - S 15 24 8 13 1008.8 - -
23/04:00pm - - - - - S 17 24 9 13 1008.6 1008.6 -
23/03:30pm - - - - - S 15 20 8 11 1008.6 - -
23/03:00pm - - - - - S 13 20 7 11 1008.6 1008.5 -
23/02:30pm - - - - - S 15 20 8 11 1008.7 - -
23/02:00pm - - - - - S 19 20 10 11 1008.8 1008.6 -
23/01:30pm - - - - - S 17 22 9 12 1009.2 - -
23/01:00pm - - - - - S 15 22 8 12 1009.5 1009.4 -
23/12:30pm - - - - - S 17 22 9 12 1009.7 - -
23/12:00pm - - - - - S 17 20 9 11 1010.2 1010.0 -
23/11:30am - - - - - S 17 24 9 13 1010.8 - -
23/11:00am - - - - - S 17 24 9 13 1011.2 1011.0 -
23/10:30am - - - - - S 17 24 9 13 1011.6 - -
23/10:00am - - - - - S 15 19 8 10 1011.9 1011.8 -
23/09:30am - - - - - S 17 20 9 11 1012.0 - -
23/09:00am - - - - - S 19 20 10 11 1011.9 1011.8 -
23/08:30am - - - - - SSW 19 20 10 11 1011.7 - -
23/08:00am - - - - - SSW 17 19 9 10 1011.6 1011.5 -
23/07:30am - - - - - SSW 13 15 7 8 1011.5 - -
23/07:00am - - - - - SSW 11 13 6 7 1011.2 1011.2 -
23/06:30am - - - - - SW 13 15 7 8 1011.0 - -
23/06:00am - - - - - SW 11 13 6 7 1010.8 1010.8 -
23/05:30am - - - - - SW 11 13 6 7 1010.8 - -
23/05:00am - - - - - WSW 9 13 5 7 1010.6 1010.5 -
23/04:30am - - - - - SW 11 11 6 6 1010.5 - -
23/04:00am - - - - - WSW 11 13 6 7 1010.6 1010.5 -
23/03:30am - - - - - WSW 11 13 6 7 1010.6 - -
23/03:00am - - - - - W 9 9 5 5 1010.6 1010.5 -
23/02:30am - - - - - WNW 7 7 4 4 1010.7 - -
23/02:00am - - - - - W 7 9 4 5 1010.9 1010.7 -
23/01:30am - - - - - W 9 11 5 6 1011.1 - -
23/01:00am - - - - - W 9 9 5 5 1011.3 1011.2 -
23/12:30am - - - - - WNW 9 11 5 6 1011.6 - -
23/12:00am - - - - - WNW 9 11 5 6 1011.9 1011.7 -
 
Date/Time
WST
Temp
°C
App
Temp
°C
Dew
Point
Rel
Hum
%
Delta-T
°C
Wind Press
QNH
hPa
Press
MSL
hPa
Rain
since 9 am
mm
Dir
 
Spd
km/h
Gust
km/h
Spd
kts
Gust
kts
22/11:30pm - - - - - WNW 7 9 4 5 1012.2 - -
22/11:00pm - - - - - CALM 0 0 0 0 1012.4 1012.3 -
22/10:00pm - - - - - S 4 6 2 3 1012.6 1012.4 -
22/09:30pm - - - - - SSE 9 11 5 6 1012.7 - -
22/09:00pm - - - - - SSE 11 15 6 8 1012.8 1012.7 -
22/08:30pm - - - - - SSE 13 17 7 9 1012.6 - -
22/08:00pm - - - - - SSE 15 20 8 11 1012.5 1012.4 -
22/07:30pm - - - - - SSE 17 20 9 11 1012.1 - -
22/07:00pm - - - - - S 15 17 8 9 1011.7 1011.7 -
22/06:30pm - - - - - SSE 15 19 8 10 1011.3 - -
22/06:00pm - - - - - SSE 17 22 9 12 1011.0 1010.9 -
22/05:30pm - - - - - SSE 17 20 9 11 1010.8 - -
22/05:00pm - - - - - SSE 19 22 10 12 1010.4 1010.4 -
22/04:30pm - - - - - SSE 19 22 10 12 1010.3 - -
22/04:00pm - - - - - SSE 20 26 11 14 1010.1 1010.1 -
22/03:30pm - - - - - SSE 22 26 12 14 1010.0 - -
22/03:00pm - - - - - SSE 22 26 12 14 1009.9 1009.8 -
22/02:30pm - - - - - SSE 22 26 12 14 1010.0 - -
22/02:00pm - - - - - SSE 22 26 12 14 1010.0 1009.9 -
22/01:30pm - - - - - SSE 24 28 13 15 1010.2 - -
22/01:00pm - - - - - SSE 22 26 12 14 1010.5 1010.3 -
22/12:30pm - - - - - SSE 20 24 11 13 1010.7 - -
22/12:00pm - - - - - SSE 20 24 11 13 1011.0 1010.8 -
22/11:30am - - - - - SE 19 20 10 11 1011.5 - -
22/11:00am - - - - - SSE 19 20 10 11 1012.0 1011.7 -
22/10:30am - - - - - SSE 17 19 9 10 1012.4 - -
22/10:00am - - - - - SSE 17 19 9 10 1012.6 1012.5 -
22/09:30am - - - - - SSE 15 19 8 10 1012.6 - -
22/09:00am - - - - - SSE 15 15 8 8 1012.5 1012.4 -
22/08:30am - - - - - S 9 13 5 7 1012.4 - -
22/08:00am - - - - - S 9 13 5 7 1012.2 1012.1 -
22/07:30am - - - - - S 9 13 5 7 1012.0 - -
22/07:00am - - - - - S 9 11 5 6 1011.8 1011.7 -
22/06:30am - - - - - SW 4 7 2 4 1011.8 - -
22/06:00am - - - - - CALM 0 0 0 0 1011.6 1011.5 -
22/05:30am - - - - - W 4 7 2 4 1011.4 - -
22/05:00am - - - - - NW 4 6 2 3 1011.1 1011.0 -
22/04:30am - - - - - WNW 6 7 3 4 1011.0 - -
22/04:00am - - - - - NW 7 9 4 5 1010.8 1010.7 -
22/03:30am - - - - - NW 9 11 5 6 1011.0 - -
22/03:00am - - - - - NW 11 13 6 7 1011.0 1010.8 -
22/02:30am - - - - - NW 13 15 7 8 1011.1 - -
22/02:00am - - - - - NW 11 15 6 8 1011.2 1011.1 -
22/01:30am - - - - - NNW 13 15 7 8 1011.3 - -
22/01:00am - - - - - NNW 11 13 6 7 1011.7 1011.5 -
22/12:30am - - - - - N 7 9 4 5 1012.1 - -
22/12:00am - - - - - NE 7 9 4 5 1012.5 1012.3 -
 
Date/Time
WST
Temp
°C
App
Temp
°C
Dew
Point
Rel
Hum
%
Delta-T
°C
Wind Press
QNH
hPa
Press
MSL
hPa
Rain
since 9 am
mm
Dir
 
Spd
km/h
Gust
km/h
Spd
kts
Gust
kts
21/11:30pm - - - - - ENE 9 11 5 6 1012.6 - -
21/11:00pm - - - - - ENE 9 11 5 6 1012.8 1012.7 -
21/10:00pm - - - - - E 11 13 6 7 1013.0 1012.9 -
21/09:30pm - - - - - E 13 15 7 8 1013.1 - -
21/09:00pm - - - - - E 15 19 8 10 1013.0 1013.0 -
21/08:30pm - - - - - ESE 17 20 9 11 1012.9 - -
21/08:00pm - - - - - ESE 17 20 9 11 1012.5 1012.5 -
21/07:30pm - - - - - ESE 17 20 9 11 1012.1 - -
21/07:00pm - - - - - ESE 17 20 9 11 1011.7 1011.7 -
21/06:30pm - - - - - ESE 19 22 10 12 1011.3 - -
21/06:00pm - - - - - SE 19 20 10 11 1011.2 1011.1 -
21/05:30pm - - - - - SE 19 20 10 11 1011.0 - -
21/05:00pm - - - - - SE 17 20 9 11 1010.9 1010.8 -
21/04:30pm - - - - - SSE 19 22 10 12 1010.6 - -
21/04:00pm - - - - - SSE 19 22 10 12 1010.2 1010.2 -
21/03:30pm - - - - - S 17 20 9 11 1009.6 - -
21/03:00pm - - - - - S 19 26 10 14 1009.7 1009.5 -
21/02:30pm - - - - - SSE 20 26 11 14 1009.7 - -
21/02:00pm - - - - - SSE 22 26 12 14 1009.9 1009.8 -
21/01:30pm - - - - - SSE 20 24 11 13 1010.2 - -
21/01:00pm - - - - - SSE 19 22 10 12 1010.4 1010.3 -
21/12:30pm - - - - - SE 20 26 11 14 1010.5 - -
21/12:00pm - - - - - SSE 20 24 11 13 1010.7 1010.5 -
21/11:30am - - - - - SSE 19 22 10 12 1011.1 - -
21/11:00am - - - - - SSE 20 22 11 12 1011.4 1011.3 -
21/10:30am - - - - - SSE 20 24 11 13 1011.5 - -
21/10:00am - - - - - SE 20 26 11 14 1011.7 1011.6 -
21/09:30am - - - - - SE 22 24 12 13 1011.6 - -
21/09:00am - - - - - SE 22 24 12 13 1011.5 1011.4 -
21/08:30am - - - - - SE 20 24 11 13 1011.6 - -
21/08:00am - - - - - SE 17 20 9 11 1011.5 1011.3 -

Other Formats:

Comma delimited format used in spreadsheet applications
http://www.bom.gov.au/fwo/IDW60801/IDW60801.94207.axf

JavaScript Object Notation format (JSON) in row-major order
http://www.bom.gov.au/fwo/IDW60801/IDW60801.94207.json